Terminal Aerodrome Forecast
Issued by NWS Charleston, WV

Current Version | Previous Version | Graphics & Text | Print | Product List | Glossary On
Versions: 1 2 3 4 5 6 7 8 9 10 11 12 13 14 15 16 17 18 19 20 21 22 23
000
FTUS41 KRLX 202326
TAFHTS
TAF
KHTS 202326Z 2100/2124 03004KT P6SM SKC
     FM210800 00000KT 6SM BR SCT250
     FM210900 00000KT 4SM BR SCT250
     FM211200 VRB04KT P6SM FEW045=

USA.gov is the U.S. government's official web portal to all federal, state and local government web resources and services.